createdAt,value
2022-12-07T00:00:21.584Z,7.78
2022-12-07T00:01:21.573Z,7.71
2022-12-07T00:02:21.640Z,7.76
2022-12-07T00:03:21.590Z,7.76
2022-12-07T00:04:21.519Z,7.74
2022-12-07T00:05:21.473Z,7.64
2022-12-07T00:06:21.445Z,7.74
2022-12-07T00:07:26.304Z,7.66
2022-12-07T00:08:21.516Z,7.69
2022-12-07T00:09:21.379Z,7.74
2022-12-07T00:10:21.352Z,7.68
2022-12-07T00:11:21.333Z,7.66
2022-12-07T00:12:21.301Z,7.73
2022-12-07T00:13:21.281Z,7.76
2022-12-07T00:14:21.267Z,7.73
2022-12-07T00:15:21.240Z,7.64
2022-12-07T00:16:21.269Z,7.66
2022-12-07T00:17:21.191Z,7.66
2022-12-07T00:18:21.164Z,7.66
2022-12-07T00:19:21.148Z,7.69
2022-12-07T00:20:21.133Z,7.64
2022-12-07T00:21:21.098Z,7.78
2022-12-07T00:22:21.073Z,7.68
2022-12-07T00:23:21.050Z,7.66
2022-12-07T00:24:21.021Z,7.74
2022-12-07T00:25:21.010Z,7.76
2022-12-07T00:26:20.975Z,7.78
2022-12-07T00:27:20.961Z,7.68
2022-12-07T00:28:20.932Z,7.71
2022-12-07T00:29:20.910Z,7.64
2022-12-07T00:30:20.883Z,7.74
2022-12-07T00:31:20.936Z,7.74
2022-12-07T00:32:20.894Z,7.76
2022-12-07T00:33:20.818Z,7.69
2022-12-07T00:34:20.789Z,7.74
2022-12-07T00:35:20.774Z,7.58
2022-12-07T00:36:26.295Z,7.60
2022-12-07T00:37:20.729Z,7.61
2022-12-07T00:38:20.698Z,7.62
2022-12-07T00:39:20.687Z,7.61
2022-12-07T00:40:20.653Z,7.66
2022-12-07T00:41:20.631Z,7.64
2022-12-07T00:42:20.603Z,7.64
2022-12-07T00:43:20.588Z,7.64
2022-12-07T00:44:20.556Z,7.62
2022-12-07T00:45:20.542Z,7.60
2022-12-07T00:46:20.599Z,7.60
2022-12-07T00:47:20.493Z,7.60
2022-12-07T00:48:20.467Z,7.66
2022-12-07T00:49:20.443Z,7.57
2022-12-07T00:50:20.418Z,7.61
2022-12-07T00:51:20.401Z,7.55
2022-12-07T00:52:20.397Z,7.50
2022-12-07T00:53:20.350Z,7.50
2022-12-07T00:54:20.324Z,7.46
2022-12-07T00:55:20.301Z,7.49
2022-12-07T00:56:20.273Z,7.50
2022-12-07T00:57:20.261Z,7.49
2022-12-07T00:58:20.229Z,7.49
2022-12-07T00:59:20.218Z,7.47
2022-12-07T01:00:20.186Z,7.49
2022-12-07T01:01:20.197Z,7.54
2022-12-07T01:02:20.138Z,7.54
2022-12-07T01:03:20.160Z,7.52
2022-12-07T01:04:20.092Z,7.54
2022-12-07T01:05:20.073Z,7.44
2022-12-07T01:06:20.054Z,7.46
2022-12-07T01:07:20.027Z,7.46
2022-12-07T01:08:20.143Z,7.42
2022-12-07T01:09:19.981Z,7.43
2022-12-07T01:10:19.948Z,7.44
2022-12-07T01:11:19.937Z,7.42
2022-12-07T01:12:19.911Z,7.52
2022-12-07T01:13:19.883Z,7.36
2022-12-07T01:14:19.855Z,7.37
2022-12-07T01:15:19.840Z,7.40
2022-12-07T01:16:19.867Z,7.40
2022-12-07T01:17:19.791Z,7.34
2022-12-07T01:18:19.768Z,7.39
2022-12-07T01:19:19.746Z,7.33
2022-12-07T01:20:19.713Z,7.39
2022-12-07T01:21:19.698Z,7.40
2022-12-07T01:22:19.667Z,7.33
2022-12-07T01:23:19.651Z,7.31
2022-12-07T01:24:19.646Z,7.33
2022-12-07T01:25:19.608Z,7.36
2022-12-07T01:26:19.581Z,7.28
2022-12-07T01:27:19.555Z,7.34
2022-12-07T01:28:19.528Z,7.36
2022-12-07T01:29:19.505Z,7.37
2022-12-07T01:30:19.481Z,7.24
2022-12-07T01:31:19.496Z,7.26
2022-12-07T01:32:19.436Z,7.31
2022-12-07T01:33:19.415Z,7.25
2022-12-07T01:34:19.391Z,7.25
2022-12-07T01:35:19.375Z,7.25
2022-12-07T01:36:19.341Z,7.22
2022-12-07T01:37:19.322Z,7.28
2022-12-07T01:38:19.295Z,7.22
2022-12-07T01:39:19.278Z,7.21
2022-12-07T01:40:19.268Z,7.11
2022-12-07T01:41:19.227Z,7.10
2022-12-07T01:42:19.201Z,7.15
2022-12-07T01:43:19.181Z,7.22
2022-12-07T01:44:19.175Z,7.16
2022-12-07T01:45:19.140Z,7.15
2022-12-07T01:46:19.181Z,7.11
2022-12-07T01:47:19.087Z,7.15
2022-12-07T01:48:19.057Z,7.18
2022-12-07T01:49:19.038Z,7.19
2022-12-07T01:50:19.011Z,7.08
2022-12-07T01:51:18.993Z,7.10
2022-12-07T01:52:18.964Z,7.08
2022-12-07T01:53:18.944Z,7.13
2022-12-07T01:54:18.916Z,7.18
2022-12-07T01:55:18.902Z,7.03
2022-12-07T01:56:18.890Z,7.03
2022-12-07T01:57:18.847Z,7.04
2022-12-07T01:58:18.824Z,7.13
2022-12-07T01:59:18.823Z,6.99
2022-12-07T02:00:18.775Z,7.01
2022-12-07T02:01:18.787Z,7.04
2022-12-07T02:02:18.838Z,7.04
2022-12-07T02:03:18.712Z,7.04
2022-12-07T02:04:18.678Z,6.89
2022-12-07T02:05:18.659Z,6.86
2022-12-07T02:06:18.634Z,7.04
2022-12-07T02:07:18.614Z,6.92
2022-12-07T02:08:18.751Z,6.89
2022-12-07T02:09:18.571Z,7.01
2022-12-07T02:10:18.538Z,6.96
2022-12-07T02:11:18.516Z,6.91
2022-12-07T02:12:18.530Z,6.92
2022-12-07T02:13:18.465Z,6.85
2022-12-07T02:14:18.441Z,6.88
2022-12-07T02:15:18.421Z,6.96
2022-12-07T02:16:18.430Z,6.81
2022-12-07T02:17:18.372Z,6.91
2022-12-07T02:18:18.347Z,6.85
2022-12-07T02:19:18.341Z,6.75
2022-12-07T02:20:18.299Z,6.85
2022-12-07T02:21:18.277Z,6.79
2022-12-07T02:22:18.249Z,6.81
2022-12-07T02:23:18.235Z,6.75
2022-12-07T02:24:18.207Z,6.81
2022-12-07T02:25:18.187Z,6.79
2022-12-07T02:26:18.154Z,6.82
2022-12-07T02:27:18.135Z,6.81
2022-12-07T02:28:18.135Z,6.78
2022-12-07T02:29:18.093Z,6.74
2022-12-07T02:30:18.061Z,6.71
2022-12-07T02:31:18.117Z,6.71
2022-12-07T02:32:18.021Z,6.70
2022-12-07T02:33:17.987Z,6.65
2022-12-07T02:34:17.971Z,6.65
2022-12-07T02:35:17.946Z,6.63
2022-12-07T02:36:17.918Z,6.61
2022-12-07T02:37:17.902Z,6.60
2022-12-07T02:38:17.873Z,6.64
2022-12-07T02:39:17.954Z,6.61
2022-12-07T02:40:17.823Z,6.57
2022-12-07T02:41:17.798Z,6.64
2022-12-07T02:42:17.777Z,6.65
2022-12-07T02:43:17.756Z,6.57
2022-12-07T02:44:17.747Z,6.50
2022-12-07T02:45:17.709Z,6.55
2022-12-07T02:46:17.727Z,6.50
2022-12-07T02:47:17.655Z,6.57
2022-12-07T02:48:17.630Z,6.53
2022-12-07T02:49:17.608Z,6.55
2022-12-07T02:50:17.584Z,6.55
2022-12-07T02:51:17.561Z,6.43
2022-12-07T02:52:17.531Z,6.43
2022-12-07T02:53:17.511Z,6.45
2022-12-07T02:54:17.494Z,6.40
2022-12-07T02:55:17.465Z,6.38
2022-12-07T02:56:17.438Z,6.40
2022-12-07T02:57:17.417Z,6.34
2022-12-07T02:58:17.390Z,6.34
2022-12-07T02:59:17.370Z,6.35
2022-12-07T03:00:17.369Z,6.35
2022-12-07T03:01:17.381Z,6.37
2022-12-07T03:02:17.327Z,6.27
2022-12-07T03:03:17.335Z,6.27
2022-12-07T03:04:17.250Z,6.34
2022-12-07T03:05:17.225Z,6.28
2022-12-07T03:06:17.202Z,6.37
2022-12-07T03:07:17.174Z,6.28
2022-12-07T03:08:17.227Z,6.25
2022-12-07T03:09:17.125Z,6.30
2022-12-07T03:10:17.102Z,6.30
2022-12-07T03:11:21.718Z,6.32
2022-12-07T03:12:17.055Z,6.30
2022-12-07T03:13:17.027Z,6.25
2022-12-07T03:14:17.003Z,6.28
2022-12-07T03:15:16.982Z,6.25
2022-12-07T03:16:17.086Z,6.24
2022-12-07T03:17:16.939Z,6.18
2022-12-07T03:18:16.907Z,6.16
2022-12-07T03:19:16.883Z,6.16
2022-12-07T03:20:16.859Z,6.18
2022-12-07T03:21:16.845Z,6.27
2022-12-07T03:22:16.813Z,6.21
2022-12-07T03:23:16.794Z,6.19
2022-12-07T03:24:16.759Z,6.25
2022-12-07T03:25:16.743Z,6.34
2022-12-07T03:26:16.714Z,6.28
2022-12-07T03:27:16.695Z,6.21
2022-12-07T03:28:16.668Z,6.24
2022-12-07T03:29:16.647Z,6.18
2022-12-07T03:30:16.644Z,6.09
2022-12-07T03:31:16.705Z,6.16
2022-12-07T03:32:16.594Z,6.09
2022-12-07T03:33:16.553Z,6.15
2022-12-07T03:34:16.523Z,6.16
2022-12-07T03:35:16.499Z,6.15
2022-12-07T03:36:16.469Z,6.21
2022-12-07T03:37:16.449Z,6.13
2022-12-07T03:38:16.426Z,6.15
2022-12-07T03:39:16.407Z,6.16
2022-12-07T03:40:16.377Z,6.08
2022-12-07T03:41:16.352Z,6.13
2022-12-07T03:42:16.324Z,6.18
2022-12-07T03:43:16.307Z,6.15
2022-12-07T03:44:16.277Z,6.16
2022-12-07T03:45:16.260Z,6.08
2022-12-07T03:46:16.341Z,6.06
2022-12-07T03:47:16.207Z,6.08
2022-12-07T03:48:16.201Z,6.03
2022-12-07T03:49:16.162Z,5.95
2022-12-07T03:50:16.130Z,5.94
2022-12-07T03:51:16.112Z,5.94
2022-12-07T03:52:16.091Z,5.93
2022-12-07T03:53:16.064Z,6.00
2022-12-07T03:54:16.034Z,5.98
2022-12-07T03:55:16.016Z,5.95
2022-12-07T03:56:15.989Z,6.02
2022-12-07T03:57:15.971Z,6.00
2022-12-07T03:58:15.936Z,6.05
2022-12-07T03:59:15.921Z,5.98
2022-12-07T04:00:15.889Z,6.06
2022-12-07T04:01:15.910Z,6.12
2022-12-07T04:02:15.924Z,6.12
2022-12-07T04:03:15.898Z,6.15
2022-12-07T04:04:15.838Z,6.13
2022-12-07T04:05:15.770Z,6.16
2022-12-07T04:06:15.752Z,6.24
2022-12-07T04:07:15.729Z,6.18
2022-12-07T04:08:15.757Z,6.28
2022-12-07T04:09:15.675Z,6.21
2022-12-07T04:10:15.663Z,6.27
2022-12-07T04:11:15.623Z,6.32
2022-12-07T04:12:15.600Z,6.27
2022-12-07T04:13:15.574Z,6.28
2022-12-07T04:14:15.562Z,6.34
2022-12-07T04:15:15.527Z,6.37
2022-12-07T04:16:15.568Z,6.42
2022-12-07T04:17:15.474Z,6.38
2022-12-07T04:18:15.457Z,6.35
2022-12-07T04:19:15.428Z,6.30
2022-12-07T04:20:15.427Z,6.32
2022-12-07T04:21:15.381Z,6.27
2022-12-07T04:22:15.364Z,6.28
2022-12-07T04:23:15.334Z,6.38
2022-12-07T04:24:15.337Z,6.37
2022-12-07T04:25:15.285Z,6.40
2022-12-07T04:26:15.264Z,6.38
2022-12-07T04:27:15.236Z,6.40
2022-12-07T04:28:15.212Z,6.37
2022-12-07T04:29:15.185Z,6.34
2022-12-07T04:30:15.496Z,6.34
2022-12-07T04:31:15.178Z,6.34
2022-12-07T04:32:15.146Z,6.32
2022-12-07T04:33:15.094Z,6.30
2022-12-07T04:34:15.069Z,6.25
2022-12-07T04:35:15.040Z,6.30
2022-12-07T04:36:15.046Z,6.31
2022-12-07T04:37:14.999Z,6.31
2022-12-07T04:38:14.973Z,6.30
2022-12-07T04:39:14.949Z,6.28
2022-12-07T04:40:14.921Z,6.25
2022-12-07T04:41:14.900Z,6.30
2022-12-07T04:42:14.876Z,6.34
2022-12-07T04:43:14.846Z,6.35
2022-12-07T04:44:14.830Z,6.31
2022-12-07T04:45:14.796Z,6.27
2022-12-07T04:46:14.876Z,6.25
2022-12-07T04:47:14.852Z,6.32
2022-12-07T04:48:14.730Z,6.30
2022-12-07T04:49:14.704Z,6.32
2022-12-07T04:50:14.681Z,6.31
2022-12-07T04:51:14.653Z,6.35
2022-12-07T04:52:14.655Z,6.24
2022-12-07T04:53:14.606Z,6.21
2022-12-07T04:54:14.584Z,6.28
2022-12-07T04:55:14.557Z,6.21
2022-12-07T04:56:14.535Z,6.24
2022-12-07T04:57:14.507Z,6.18
2022-12-07T04:58:14.488Z,6.27
2022-12-07T04:59:14.459Z,6.27
2022-12-07T05:00:14.439Z,6.31
2022-12-07T05:01:14.459Z,6.28
2022-12-07T05:02:14.475Z,6.13
2022-12-07T05:03:14.369Z,6.15
2022-12-07T05:04:14.342Z,6.19
2022-12-07T05:05:14.321Z,6.15
2022-12-07T05:06:14.293Z,6.21
2022-12-07T05:07:14.270Z,6.11
2022-12-07T05:08:14.386Z,6.19
2022-12-07T05:09:14.216Z,6.09
2022-12-07T05:10:14.204Z,6.11
2022-12-07T05:11:14.174Z,6.18
2022-12-07T05:12:14.147Z,6.15
2022-12-07T05:13:14.125Z,6.15
2022-12-07T05:14:14.097Z,6.19
2022-12-07T05:15:14.077Z,6.12
2022-12-07T05:16:14.142Z,6.15
2022-12-07T05:17:14.025Z,6.18
2022-12-07T05:18:14.002Z,6.11
2022-12-07T05:19:13.974Z,6.15
2022-12-07T05:20:13.959Z,6.09
2022-12-07T05:21:13.932Z,5.98
2022-12-07T05:22:13.908Z,6.06
2022-12-07T05:23:13.879Z,6.12
2022-12-07T05:24:13.988Z,6.13
2022-12-07T05:25:13.828Z,6.09
2022-12-07T05:26:13.810Z,6.19
2022-12-07T05:27:13.781Z,6.18
2022-12-07T05:28:13.813Z,6.06
2022-12-07T05:29:13.734Z,6.05
2022-12-07T05:30:13.712Z,6.06
2022-12-07T05:31:13.699Z,6.09
2022-12-07T05:32:13.665Z,6.11
2022-12-07T05:33:13.637Z,6.19
2022-12-07T05:34:13.615Z,6.25
2022-12-07T05:35:13.592Z,6.27
2022-12-07T05:36:13.568Z,6.19
2022-12-07T05:37:13.542Z,6.16
2022-12-07T05:38:13.525Z,6.32
2022-12-07T05:39:13.494Z,6.31
2022-12-07T05:40:13.489Z,6.30
2022-12-07T05:41:13.441Z,6.28
2022-12-07T05:42:13.422Z,6.25
2022-12-07T05:43:13.393Z,6.18
2022-12-07T05:44:13.371Z,6.25
2022-12-07T05:45:13.343Z,6.27
2022-12-07T05:46:13.403Z,6.25
2022-12-07T05:47:13.297Z,6.28
2022-12-07T05:48:13.275Z,6.25
2022-12-07T05:49:13.250Z,6.13
2022-12-07T05:50:13.228Z,6.24
2022-12-07T05:51:13.204Z,6.21
2022-12-07T05:52:13.177Z,6.24
2022-12-07T05:53:13.156Z,6.24
2022-12-07T05:54:13.124Z,6.25
2022-12-07T05:55:13.106Z,6.28
2022-12-07T05:56:13.099Z,6.24
2022-12-07T05:57:13.057Z,6.25
2022-12-07T05:58:13.033Z,6.18
2022-12-07T05:59:13.009Z,6.13
2022-12-07T06:00:12.981Z,6.16
2022-12-07T06:01:12.961Z,6.11
2022-12-07T06:02:13.032Z,6.13
2022-12-07T06:03:12.997Z,6.18
2022-12-07T06:04:12.886Z,6.11
2022-12-07T06:05:12.857Z,6.11
2022-12-07T06:06:12.892Z,6.13
2022-12-07T06:07:12.811Z,6.13
2022-12-07T06:08:12.820Z,6.16
2022-12-07T06:09:12.765Z,6.18
2022-12-07T06:10:12.744Z,6.12
2022-12-07T06:11:12.714Z,6.18
2022-12-07T06:12:12.706Z,6.15
2022-12-07T06:13:12.670Z,6.21
2022-12-07T06:14:12.645Z,6.24
2022-12-07T06:15:12.617Z,6.31
2022-12-07T06:16:12.665Z,6.30
2022-12-07T06:17:12.568Z,6.19
2022-12-07T06:18:12.548Z,6.18
2022-12-07T06:19:12.518Z,6.16
2022-12-07T06:20:12.499Z,6.27
2022-12-07T06:21:12.478Z,6.25
2022-12-07T06:22:12.446Z,6.21
2022-12-07T06:23:12.434Z,6.24
2022-12-07T06:24:12.398Z,6.19
2022-12-07T06:25:12.378Z,6.25
2022-12-07T06:26:12.356Z,6.31
2022-12-07T06:27:12.329Z,6.24
2022-12-07T06:28:12.328Z,6.25
2022-12-07T06:29:12.276Z,6.34
2022-12-07T06:30:12.258Z,6.32
2022-12-07T06:31:14.049Z,6.31
2022-12-07T06:32:12.227Z,6.34
2022-12-07T06:33:12.183Z,6.35
2022-12-07T06:34:12.158Z,6.40
2022-12-07T06:35:12.132Z,6.35
2022-12-07T06:36:12.111Z,6.30
2022-12-07T06:37:12.079Z,6.30
2022-12-07T06:38:12.066Z,6.24
2022-12-07T06:39:12.035Z,6.27
2022-12-07T06:40:12.010Z,6.27
2022-12-07T06:41:11.986Z,6.25
2022-12-07T06:42:11.968Z,6.27
2022-12-07T06:43:11.937Z,6.18
2022-12-07T06:44:11.945Z,6.27
2022-12-07T06:45:11.890Z,6.18
2022-12-07T06:46:11.939Z,6.21
2022-12-07T06:47:39.651Z,6.19
2022-12-07T06:48:11.821Z,6.24
2022-12-07T06:49:11.794Z,6.25
2022-12-07T06:50:11.771Z,6.21
2022-12-07T06:51:11.746Z,6.19
2022-12-07T06:52:11.722Z,6.15
2022-12-07T06:53:11.696Z,6.27
2022-12-07T06:54:11.674Z,6.13
2022-12-07T06:55:11.649Z,6.15
2022-12-07T06:56:11.625Z,6.05
2022-12-07T06:57:11.599Z,6.15
2022-12-07T06:58:11.575Z,6.08
2022-12-07T06:59:11.545Z,6.11
2022-12-07T07:00:12.344Z,6.11
2022-12-07T07:01:11.558Z,6.08
2022-12-07T07:02:11.571Z,6.16
2022-12-07T07:03:11.453Z,6.08
2022-12-07T07:04:11.428Z,6.06
2022-12-07T07:05:11.405Z,6.12
2022-12-07T07:06:11.381Z,6.05
2022-12-07T07:07:11.351Z,6.05
2022-12-07T07:08:26.809Z,5.93
2022-12-07T07:09:11.368Z,6.03
2022-12-07T07:10:11.282Z,6.00
2022-12-07T07:11:11.252Z,6.05
2022-12-07T07:12:11.233Z,5.93
2022-12-07T07:13:11.207Z,6.03
2022-12-07T07:14:11.190Z,5.93
2022-12-07T07:15:11.157Z,5.94
2022-12-07T07:16:11.170Z,6.03
2022-12-07T07:17:11.196Z,5.93
2022-12-07T07:18:11.089Z,5.94
2022-12-07T07:19:11.063Z,5.79
2022-12-07T07:20:11.033Z,5.75
2022-12-07T07:21:11.013Z,5.84
2022-12-07T07:22:10.993Z,5.82
2022-12-07T07:23:10.962Z,5.87
2022-12-07T07:24:10.937Z,5.91
2022-12-07T07:25:10.922Z,5.90
2022-12-07T07:26:10.915Z,5.94
2022-12-07T07:27:10.863Z,5.98
2022-12-07T07:28:10.851Z,5.98
2022-12-07T07:29:10.821Z,5.98
2022-12-07T07:30:10.794Z,5.98
2022-12-07T07:31:10.885Z,6.03
2022-12-07T07:32:10.759Z,6.09
2022-12-07T07:33:10.714Z,6.06
2022-12-07T07:34:10.696Z,6.06
2022-12-07T07:35:10.667Z,6.03
2022-12-07T07:36:10.653Z,6.11
2022-12-07T07:37:10.616Z,6.12
2022-12-07T07:38:10.594Z,6.18
2022-12-07T07:39:10.572Z,5.97
2022-12-07T07:40:10.551Z,6.08
2022-12-07T07:41:10.525Z,6.03
2022-12-07T07:42:10.504Z,6.11
2022-12-07T07:43:10.474Z,6.00
2022-12-07T07:44:10.450Z,6.15
2022-12-07T07:45:10.424Z,6.25
2022-12-07T07:46:10.485Z,6.21
2022-12-07T07:47:10.381Z,6.16
2022-12-07T07:48:10.368Z,6.19
2022-12-07T07:49:10.325Z,6.25
2022-12-07T07:50:10.302Z,6.27
2022-12-07T07:51:10.285Z,6.27
2022-12-07T07:52:10.256Z,6.30
2022-12-07T07:53:10.226Z,6.35
2022-12-07T07:54:10.211Z,6.40
2022-12-07T07:55:10.180Z,6.35
2022-12-07T07:56:10.163Z,6.34
2022-12-07T07:57:10.130Z,6.27
2022-12-07T07:58:10.109Z,6.16
2022-12-07T07:59:10.085Z,6.21
2022-12-07T08:00:10.061Z,6.25
2022-12-07T08:01:10.126Z,6.24
2022-12-07T08:02:10.011Z,6.21
2022-12-07T08:03:09.991Z,6.19
2022-12-07T08:04:09.992Z,6.25
2022-12-07T08:05:10.011Z,6.16
2022-12-07T08:06:09.932Z,6.18
2022-12-07T08:07:09.886Z,6.21
2022-12-07T08:08:09.951Z,6.13
2022-12-07T08:09:09.865Z,6.15
2022-12-07T08:10:09.819Z,6.24
2022-12-07T08:11:09.789Z,6.19
2022-12-07T08:12:09.768Z,6.24
2022-12-07T08:13:09.741Z,6.19
2022-12-07T08:14:09.720Z,6.18
2022-12-07T08:15:09.694Z,6.21
2022-12-07T08:16:09.758Z,6.15
2022-12-07T08:17:09.643Z,6.27
2022-12-07T08:18:09.625Z,6.08
2022-12-07T08:19:09.602Z,6.12
2022-12-07T08:20:09.595Z,6.21
2022-12-07T08:21:09.570Z,6.27
2022-12-07T08:22:09.533Z,6.02
2022-12-07T08:23:09.503Z,6.15
2022-12-07T08:24:09.480Z,6.06
2022-12-07T08:25:09.456Z,6.24
2022-12-07T08:26:09.432Z,6.31
2022-12-07T08:27:09.402Z,6.43
2022-12-07T08:28:09.381Z,6.63
2022-12-07T08:29:09.358Z,6.89
2022-12-07T08:30:09.337Z,7.19
2022-12-07T08:31:09.426Z,7.44
2022-12-07T08:32:09.906Z,7.76
2022-12-07T08:33:09.270Z,7.69
2022-12-07T08:34:09.244Z,7.80
2022-12-07T08:35:09.222Z,7.96
2022-12-07T08:36:09.222Z,7.95
2022-12-07T08:37:09.174Z,7.98
2022-12-07T08:38:09.162Z,7.81
2022-12-07T08:39:30.854Z,7.80
2022-12-07T08:40:09.106Z,7.94
2022-12-07T08:41:09.090Z,7.96
2022-12-07T08:42:09.065Z,8.38
2022-12-07T08:43:09.039Z,8.62
2022-12-07T08:44:09.022Z,8.52
2022-12-07T08:45:08.994Z,9.11
2022-12-07T08:46:09.096Z,9.60
2022-12-07T08:47:08.956Z,10.09
2022-12-07T08:48:08.940Z,10.45
2022-12-07T08:49:08.915Z,11.01
2022-12-07T08:50:08.903Z,11.51
2022-12-07T08:51:08.877Z,11.89
2022-12-07T08:52:08.879Z,12.26
2022-12-07T08:53:08.844Z,12.68
2022-12-07T08:54:08.838Z,12.26
2022-12-07T08:55:08.807Z,12.83
2022-12-07T08:56:08.790Z,12.83
2022-12-07T08:57:08.772Z,13.21
2022-12-07T08:58:08.762Z,13.14
2022-12-07T08:59:08.737Z,13.26
2022-12-07T09:00:08.728Z,13.09
2022-12-07T09:01:08.757Z,13.16
2022-12-07T09:02:08.786Z,12.68
2022-12-07T09:03:08.680Z,12.35
2022-12-07T09:04:08.672Z,11.99
2022-12-07T09:05:14.792Z,11.48
2022-12-07T09:06:08.793Z,11.25
2022-12-07T09:07:08.729Z,10.75
2022-12-07T09:08:08.714Z,9.94
2022-12-07T09:09:08.578Z,9.66
2022-12-07T09:10:08.561Z,9.65
2022-12-07T09:11:08.546Z,9.15
2022-12-07T09:12:08.523Z,9.11
2022-12-07T09:13:08.505Z,8.75
2022-12-07T09:14:08.489Z,8.63
2022-12-07T09:15:08.471Z,8.63
2022-12-07T09:16:08.500Z,8.57
2022-12-07T09:17:08.426Z,8.55
2022-12-07T09:18:08.412Z,8.31
2022-12-07T09:19:08.385Z,8.23
2022-12-07T09:20:08.371Z,8.14
2022-12-07T09:21:08.348Z,8.04
2022-12-07T09:22:08.332Z,8.06
2022-12-07T09:23:08.310Z,8.01
2022-12-07T09:24:08.314Z,7.86
2022-12-07T09:25:08.266Z,7.87
2022-12-07T09:26:10.835Z,7.95
2022-12-07T09:27:08.236Z,8.04
2022-12-07T09:28:08.209Z,8.13
2022-12-07T09:29:08.192Z,8.19
2022-12-07T09:30:08.172Z,8.29
2022-12-07T09:31:23.449Z,8.44
2022-12-07T09:32:11.559Z,8.49
2022-12-07T09:33:08.108Z,8.47
2022-12-07T09:34:08.280Z,8.63
2022-12-07T09:35:08.061Z,8.78
2022-12-07T09:36:08.042Z,8.83
2022-12-07T09:37:08.014Z,8.88
2022-12-07T09:38:08.000Z,8.93
2022-12-07T09:39:07.972Z,9.69
2022-12-07T09:40:08.219Z,9.55
2022-12-07T09:41:07.932Z,9.90
2022-12-07T09:42:07.919Z,10.21
2022-12-07T09:43:07.965Z,10.41
2022-12-07T09:44:07.893Z,11.19
2022-12-07T09:45:07.857Z,11.33
2022-12-07T09:46:07.883Z,11.79
2022-12-07T09:47:07.824Z,11.48
2022-12-07T09:48:07.805Z,11.01
2022-12-07T09:49:07.784Z,11.09
2022-12-07T09:50:07.766Z,11.62
2022-12-07T09:51:07.742Z,11.89
2022-12-07T09:52:07.720Z,12.18
2022-12-07T09:53:07.702Z,12.47
2022-12-07T09:54:07.691Z,12.91
2022-12-07T09:55:07.675Z,12.81
2022-12-07T09:56:07.678Z,12.88
2022-12-07T09:57:07.636Z,12.54
2022-12-07T09:58:07.624Z,12.41
2022-12-07T09:59:07.601Z,12.84
2022-12-07T10:00:07.597Z,13.35
2022-12-07T10:01:07.574Z,13.51
2022-12-07T10:02:07.591Z,13.32
2022-12-07T10:03:07.543Z,12.40
2022-12-07T10:04:07.513Z,12.25
2022-12-07T10:05:07.917Z,12.69
2022-12-07T10:06:07.490Z,13.11
2022-12-07T10:07:07.474Z,13.45
2022-12-07T10:08:07.517Z,13.29
2022-12-07T10:09:07.445Z,13.57
2022-12-07T10:10:07.432Z,13.63
2022-12-07T10:11:07.415Z,14.38
2022-12-07T10:12:07.417Z,14.89
2022-12-07T10:13:07.389Z,15.32
2022-12-07T10:14:07.371Z,15.44
2022-12-07T10:15:08.479Z,14.74
2022-12-07T10:16:07.656Z,13.96
2022-12-07T10:17:07.325Z,13.32
2022-12-07T10:18:07.313Z,13.45
2022-12-07T10:19:07.294Z,13.06
2022-12-07T10:20:07.281Z,12.68
2022-12-07T10:21:07.269Z,12.59
2022-12-07T10:22:07.255Z,12.84
2022-12-07T10:23:07.254Z,12.77
2022-12-07T10:24:07.224Z,13.01
2022-12-07T10:25:07.205Z,12.99
2022-12-07T10:26:07.193Z,13.47
2022-12-07T10:27:07.174Z,13.85
2022-12-07T10:28:07.183Z,13.90
2022-12-07T10:29:07.143Z,13.58
2022-12-07T10:30:07.147Z,13.43
2022-12-07T10:31:07.150Z,12.88
2022-12-07T10:32:07.106Z,12.63
2022-12-07T10:33:07.084Z,13.02
2022-12-07T10:34:07.079Z,12.79
2022-12-07T10:35:07.383Z,12.41
2022-12-07T10:36:07.043Z,11.93
2022-12-07T10:37:07.024Z,11.88
2022-12-07T10:38:07.013Z,11.73
2022-12-07T10:39:06.991Z,11.71
2022-12-07T10:40:06.979Z,11.80
2022-12-07T10:41:06.964Z,11.96
2022-12-07T10:42:06.951Z,11.99
2022-12-07T10:43:06.923Z,11.87
2022-12-07T10:44:06.931Z,11.41
2022-12-07T10:45:07.400Z,11.33
2022-12-07T10:46:11.428Z,11.04
2022-12-07T10:47:06.898Z,10.83
2022-12-07T10:48:06.846Z,10.97
2022-12-07T10:49:06.826Z,10.98
2022-12-07T10:50:06.803Z,11.05
2022-12-07T10:51:06.784Z,11.12
2022-12-07T10:52:06.772Z,10.91
2022-12-07T10:53:06.752Z,10.65
2022-12-07T10:54:06.736Z,10.36
2022-12-07T10:55:06.727Z,10.26
2022-12-07T10:56:06.702Z,9.96
2022-12-07T10:57:06.677Z,9.83
2022-12-07T10:58:06.661Z,9.78
2022-12-07T10:59:06.648Z,9.72
2022-12-07T11:00:06.648Z,9.85
2022-12-07T11:01:06.667Z,9.91
2022-12-07T11:02:06.633Z,10.09
2022-12-07T11:03:06.570Z,9.96
2022-12-07T11:04:06.553Z,9.91
2022-12-07T11:05:06.527Z,9.85
2022-12-07T11:06:06.512Z,9.80
2022-12-07T11:07:06.490Z,9.67
2022-12-07T11:08:06.545Z,9.69
2022-12-07T11:09:06.449Z,9.72
2022-12-07T11:10:09.261Z,9.69
2022-12-07T11:11:06.409Z,9.60
2022-12-07T11:12:06.394Z,9.87
2022-12-07T11:13:06.373Z,9.93
2022-12-07T11:14:06.352Z,9.99
2022-12-07T11:15:06.332Z,10.27
2022-12-07T11:16:06.583Z,10.34
2022-12-07T11:17:06.292Z,10.49
2022-12-07T11:18:06.282Z,10.90
2022-12-07T11:19:06.249Z,11.28
2022-12-07T11:20:06.362Z,11.52
2022-12-07T11:21:06.213Z,11.56
2022-12-07T11:22:06.194Z,11.58
2022-12-07T11:23:06.173Z,11.59
2022-12-07T11:24:06.154Z,11.76
2022-12-07T11:25:06.141Z,11.89
2022-12-07T11:26:06.127Z,12.28
2022-12-07T11:27:06.104Z,12.48
2022-12-07T11:28:06.085Z,12.62
2022-12-07T11:29:06.060Z,12.88
2022-12-07T11:30:06.373Z,13.05
2022-12-07T11:31:06.108Z,13.05
2022-12-07T11:32:06.086Z,12.98
2022-12-07T11:33:05.995Z,12.73
2022-12-07T11:34:05.979Z,12.48
2022-12-07T11:35:05.957Z,12.28
2022-12-07T11:36:05.941Z,12.18
2022-12-07T11:37:05.957Z,11.84
2022-12-07T11:38:05.909Z,11.66
2022-12-07T11:39:05.886Z,11.88
2022-12-07T11:40:06.022Z,11.89
2022-12-07T11:41:05.865Z,11.74
2022-12-07T11:42:05.841Z,11.56
2022-12-07T11:43:05.816Z,11.58
2022-12-07T11:44:05.807Z,11.56
2022-12-07T11:45:05.782Z,11.71
2022-12-07T11:46:05.764Z,11.85
2022-12-07T11:47:05.792Z,11.91
2022-12-07T11:48:05.749Z,12.00
2022-12-07T11:49:05.711Z,12.05
2022-12-07T11:50:05.692Z,12.32
2022-12-07T11:51:05.672Z,12.55
2022-12-07T11:52:05.659Z,12.66
2022-12-07T11:53:05.637Z,12.80
2022-12-07T11:54:05.626Z,12.84
2022-12-07T11:55:05.604Z,12.96
2022-12-07T11:56:05.586Z,12.96
2022-12-07T11:57:05.566Z,13.08
2022-12-07T11:58:05.552Z,12.96
2022-12-07T11:59:05.534Z,13.01
2022-12-07T12:00:05.838Z,12.91
2022-12-07T12:01:05.496Z,12.73
2022-12-07T12:02:05.555Z,12.73
2022-12-07T12:03:05.565Z,12.63
2022-12-07T12:04:05.472Z,12.72
2022-12-07T12:05:05.425Z,12.63
2022-12-07T12:06:05.407Z,12.40
2022-12-07T12:10:05.870Z,11.76
2022-12-07T12:11:05.319Z,11.64
2022-12-07T12:15:05.685Z,11.23
2022-12-07T12:16:05.286Z,11.34
2022-12-07T12:17:05.208Z,11.54
2022-12-07T12:18:05.197Z,11.43
2022-12-07T12:19:05.173Z,11.54
2022-12-07T12:20:05.177Z,11.56
2022-12-07T12:21:05.133Z,11.62
2022-12-07T12:22:05.118Z,11.84
2022-12-07T12:23:05.099Z,11.69
2022-12-07T12:24:05.074Z,11.45
2022-12-07T12:25:05.293Z,11.48
2022-12-07T12:26:05.111Z,11.41
2022-12-07T12:27:05.021Z,11.38
2022-12-07T12:28:05.004Z,11.33
2022-12-07T12:29:04.983Z,11.31
2022-12-07T12:30:04.967Z,11.20
2022-12-07T12:31:04.951Z,11.31
2022-12-07T12:32:05.039Z,11.41
2022-12-07T12:33:04.912Z,11.41
2022-12-07T12:34:04.900Z,11.33
2022-12-07T12:35:05.524Z,11.36
2022-12-07T12:36:04.975Z,11.38
2022-12-07T12:37:04.834Z,11.36
2022-12-07T12:38:04.817Z,11.20
2022-12-07T12:39:04.803Z,11.05
2022-12-07T12:40:04.782Z,11.16
2022-12-07T12:41:04.776Z,11.22
2022-12-07T12:42:04.739Z,11.13
2022-12-07T12:43:04.722Z,11.00
2022-12-07T12:44:04.704Z,10.93
2022-12-07T12:45:05.063Z,11.09
2022-12-07T12:46:04.738Z,11.01
2022-12-07T12:47:04.647Z,10.90
2022-12-07T12:48:04.625Z,10.80
2022-12-07T12:49:04.604Z,10.72
2022-12-07T12:50:04.592Z,10.73
2022-12-07T12:51:04.569Z,10.58
2022-12-07T12:52:04.572Z,10.43
2022-12-07T12:53:04.546Z,10.43
2022-12-07T12:54:04.536Z,10.43
2022-12-07T12:55:04.773Z,10.28
2022-12-07T12:56:04.471Z,10.39
2022-12-07T12:57:04.450Z,10.23
2022-12-07T12:58:04.436Z,10.18
2022-12-07T12:59:04.403Z,10.10
2022-12-07T13:00:04.386Z,10.08
2022-12-07T13:01:04.425Z,10.03
2022-12-07T13:02:04.407Z,10.06
2022-12-07T13:03:08.738Z,9.99
2022-12-07T13:04:04.302Z,9.93
2022-12-07T13:05:04.616Z,9.98
2022-12-07T13:06:04.263Z,9.91
2022-12-07T13:07:04.343Z,9.84
2022-12-07T13:08:04.306Z,9.80
2022-12-07T13:09:04.195Z,9.80
2022-12-07T13:10:04.180Z,9.78
2022-12-07T13:11:04.159Z,9.62
2022-12-07T13:12:04.137Z,9.65
2022-12-07T13:13:04.119Z,9.65
2022-12-07T13:14:04.095Z,9.73
2022-12-07T13:15:04.432Z,9.65
2022-12-07T13:16:04.054Z,9.66
2022-12-07T13:17:04.089Z,9.67